createdAt,value
2018-04-12T00:00:05.126Z,8.01
2018-04-12T00:01:05.132Z,7.91
2018-04-12T00:02:05.251Z,7.95
2018-04-12T00:03:05.148Z,7.92
2018-04-12T00:04:05.150Z,7.94
2018-04-12T00:05:05.154Z,8.09
2018-04-12T00:06:05.163Z,8
2018-04-12T00:07:05.153Z,8.14
2018-04-12T00:08:05.125Z,8.12
2018-04-12T00:09:05.138Z,8.05
2018-04-12T00:10:05.114Z,7.95
2018-04-12T00:11:05.125Z,7.99
2018-04-12T00:12:05.155Z,8.1
2018-04-12T00:13:05.122Z,8.08
2018-04-12T00:14:05.140Z,8.02
2018-04-12T00:15:05.112Z,7.98
2018-04-12T00:16:05.100Z,8.11
2018-04-12T00:17:05.126Z,8.09
2018-04-12T00:18:05.111Z,8.08
2018-04-12T00:19:05.195Z,8.07
2018-04-12T00:20:05.119Z,7.99
2018-04-12T00:21:05.087Z,7.99
2018-04-12T00:22:05.115Z,8.01
2018-04-12T00:23:05.143Z,8.08
2018-04-12T00:24:05.095Z,8.13
2018-04-12T00:25:05.131Z,8.02
2018-04-12T00:26:05.095Z,8.13
2018-04-12T00:27:05.176Z,8.11
2018-04-12T00:28:05.081Z,8.05
2018-04-12T00:29:05.204Z,8.03
2018-04-12T00:30:05.195Z,8.16
2018-04-12T00:31:05.099Z,8.11
2018-04-12T00:32:05.149Z,8.15
2018-04-12T00:33:05.056Z,8.13
2018-04-12T00:34:05.092Z,8.06
2018-04-12T00:35:05.065Z,8.05
2018-04-12T00:36:05.098Z,8.11
2018-04-12T00:37:05.084Z,8.03
2018-04-12T00:38:05.087Z,8.06
2018-04-12T00:39:05.057Z,8.02
2018-04-12T00:40:05.090Z,8.02
2018-04-12T00:41:05.104Z,8.02
2018-04-12T00:42:05.060Z,8.02
2018-04-12T00:43:05.105Z,8.23
2018-04-12T00:44:05.352Z,8.23
2018-04-12T00:45:05.072Z,8.17
2018-04-12T00:46:05.061Z,8.14
2018-04-12T00:47:05.068Z,8.06
2018-04-12T00:48:05.059Z,8.08
2018-04-12T00:49:05.066Z,8.27
2018-04-12T00:50:05.061Z,8.32
2018-04-12T00:51:05.059Z,8.19
2018-04-12T00:52:05.058Z,8.16
2018-04-12T00:53:05.047Z,8.13
2018-04-12T00:54:05.074Z,8.08
2018-04-12T00:55:05.033Z,8.07
2018-04-12T00:56:05.056Z,8.18
2018-04-12T00:57:05.031Z,8.21
2018-04-12T00:58:05.043Z,8.16
2018-04-12T00:59:05.064Z,8.11
2018-04-12T01:00:05.048Z,8.1
2018-04-12T01:01:05.028Z,8.23
2018-04-12T01:02:05.067Z,8.09
2018-04-12T01:03:05.102Z,8.05
2018-04-12T01:04:05.120Z,8.04
2018-04-12T01:05:05.046Z,8.26
2018-04-12T01:06:05.010Z,8.24
2018-04-12T01:07:05.054Z,8.21
2018-04-12T01:08:05.046Z,8.12
2018-04-12T01:09:05.066Z,8.18
2018-04-12T01:10:05.044Z,8.16
2018-04-12T01:11:05.031Z,8.22
2018-04-12T01:12:05.037Z,8.28
2018-04-12T01:13:05.017Z,8.2
2018-04-12T01:14:05.357Z,8.18
2018-04-12T01:15:05.037Z,8.19
2018-04-12T01:16:05.024Z,8.15
2018-04-12T01:17:05.070Z,8.16
2018-04-12T01:18:05.005Z,8.09
2018-04-12T01:19:05.025Z,8.03
2018-04-12T01:20:05.010Z,8.06
2018-04-12T01:21:05.006Z,8.22
2018-04-12T01:22:05.019Z,8.16
2018-04-12T01:23:05.032Z,8.13
2018-04-12T01:24:05.043Z,8.14
2018-04-12T01:25:04.997Z,8.07
2018-04-12T01:26:05.010Z,8.05
2018-04-12T01:27:05.015Z,8.15
2018-04-12T01:28:05.010Z,8.17
2018-04-12T01:29:05.085Z,8.1
2018-04-12T01:30:05.021Z,8.09
2018-04-12T01:31:05.112Z,8.11
2018-04-12T01:32:05.148Z,8.07
2018-04-12T01:33:05.029Z,8.16
2018-04-12T01:34:04.985Z,8.14
2018-04-12T01:35:05.017Z,8.17
2018-04-12T01:36:05.002Z,8.19
2018-04-12T01:37:05.047Z,8.16
2018-04-12T01:38:05.003Z,8.14
2018-04-12T01:39:05.057Z,8.05
2018-04-12T01:40:05.056Z,8.14
2018-04-12T01:41:05.038Z,8.12
2018-04-12T01:42:04.997Z,8.1
2018-04-12T01:43:04.983Z,8.07
2018-04-12T01:44:05.087Z,8.15
2018-04-12T01:45:05.020Z,8.16
2018-04-12T01:46:04.972Z,8.13
2018-04-12T01:47:04.979Z,8.16
2018-04-12T01:48:04.970Z,8.05
2018-04-12T01:49:04.986Z,8.09
2018-04-12T01:50:05.135Z,8.07
2018-04-12T01:51:04.955Z,8.12
2018-04-12T01:52:04.965Z,8.2
2018-04-12T01:53:04.972Z,8.1
2018-04-12T01:54:04.961Z,8.07
2018-04-12T01:55:05.087Z,8.14
2018-04-12T01:56:04.946Z,8.07
2018-04-12T01:57:04.981Z,8.04
2018-04-12T01:58:04.958Z,8.04
2018-04-12T01:59:04.963Z,7.98
2018-04-12T02:00:05.001Z,8.08
2018-04-12T02:01:04.955Z,8.04
2018-04-12T02:02:04.964Z,8.03
2018-04-12T02:03:04.959Z,8.01
2018-04-12T02:04:04.977Z,8.06
2018-04-12T02:05:04.966Z,8.07
2018-04-12T02:06:04.983Z,8.04
2018-04-12T02:07:04.970Z,8.09
2018-04-12T02:08:04.986Z,8.07
2018-04-12T02:09:04.926Z,8
2018-04-12T02:10:04.932Z,8.03
2018-04-12T02:11:04.956Z,8.1
2018-04-12T02:12:04.930Z,8.04
2018-04-12T02:13:04.951Z,8.01
2018-04-12T02:14:04.932Z,8
2018-04-12T02:15:04.952Z,8.05
2018-04-12T02:16:04.981Z,7.98
2018-04-12T02:17:04.933Z,8.01
2018-04-12T02:18:04.999Z,8.04
2018-04-12T02:19:05.018Z,8
2018-04-12T02:20:04.935Z,7.98
2018-04-12T02:21:05.067Z,8.01
2018-04-12T02:22:04.916Z,8.07
2018-04-12T02:23:04.926Z,8.09
2018-04-12T02:24:04.908Z,8.04
2018-04-12T02:25:04.947Z,8.08
2018-04-12T02:26:04.929Z,8.05
2018-04-12T02:27:04.914Z,8
2018-04-12T02:28:04.905Z,7.97
2018-04-12T02:29:04.946Z,8.06
2018-04-12T02:30:04.915Z,7.95
2018-04-12T02:31:05.067Z,8
2018-04-12T02:32:04.936Z,7.96
2018-04-12T02:33:04.896Z,8.05
2018-04-12T02:34:04.912Z,8.03
2018-04-12T02:35:05.320Z,8.03
2018-04-12T02:36:04.948Z,8.02
2018-04-12T02:37:05.076Z,8.05
2018-04-12T02:38:04.908Z,8.02
2018-04-12T02:39:04.908Z,8.06
2018-04-12T02:40:04.903Z,8.08
2018-04-12T02:41:04.959Z,8.03
2018-04-12T02:42:04.887Z,8.09
2018-04-12T02:43:04.926Z,8.13
2018-04-12T02:44:04.905Z,8.08
2018-04-12T02:45:05.072Z,8.18
2018-04-12T02:46:04.905Z,8.16
2018-04-12T02:47:04.894Z,8.11
2018-04-12T02:48:04.876Z,8.12
2018-04-12T02:49:04.901Z,7.99
2018-04-12T02:50:04.923Z,8.1
2018-04-12T02:51:04.916Z,8.07
2018-04-12T02:52:04.903Z,8.04
2018-04-12T02:53:04.884Z,8.09
2018-04-12T02:54:04.897Z,8.13
2018-04-12T02:55:04.919Z,8.2
2018-04-12T02:56:04.902Z,8.2
2018-04-12T02:57:04.969Z,8.06
2018-04-12T02:58:04.904Z,8.15
2018-04-12T02:59:04.856Z,8.16
2018-04-12T03:00:04.874Z,8.19
2018-04-12T03:01:04.878Z,8.06
2018-04-12T03:02:04.873Z,8.12
2018-04-12T03:03:04.871Z,8.22
2018-04-12T03:04:04.862Z,8.21
2018-04-12T03:05:04.863Z,8.09
2018-04-12T03:06:04.880Z,8.12
2018-04-12T03:07:04.867Z,8.19
2018-04-12T03:08:04.913Z,8.1
2018-04-12T03:09:04.854Z,8.11
2018-04-12T03:10:04.942Z,8.17
2018-04-12T03:11:04.885Z,8.1
2018-04-12T03:12:04.879Z,7.98
2018-04-12T03:13:04.882Z,8.09
2018-04-12T03:14:04.838Z,8.21
2018-04-12T03:15:04.865Z,8.22
2018-04-12T03:16:04.826Z,8.16
2018-04-12T03:17:04.843Z,8.2
2018-04-12T03:18:04.896Z,8.18
2018-04-12T03:19:04.898Z,8.21
2018-04-12T03:20:04.853Z,8.2
2018-04-12T03:21:04.837Z,8.21
2018-04-12T03:22:04.881Z,8.22
2018-04-12T03:23:05.070Z,8.21
2018-04-12T03:24:04.822Z,8.15
2018-04-12T03:25:04.836Z,8.1
2018-04-12T03:26:04.828Z,8.15
2018-04-12T03:27:04.825Z,8.03
2018-04-12T03:28:04.906Z,8.02
2018-04-12T03:29:04.814Z,8.14
2018-04-12T03:30:04.818Z,8.14
2018-04-12T03:31:05.009Z,8.2
2018-04-12T03:32:04.820Z,8.18
2018-04-12T03:33:05.008Z,8.13
2018-04-12T03:34:04.815Z,8.14
2018-04-12T03:35:04.841Z,8.1
2018-04-12T03:36:05.135Z,8.05
2018-04-12T03:37:04.822Z,8.01
2018-04-12T03:38:04.800Z,8.06
2018-04-12T03:39:04.825Z,8.16
2018-04-12T03:40:04.823Z,8.05
2018-04-12T03:41:04.828Z,8.06
2018-04-12T03:42:04.793Z,8.07
2018-04-12T03:43:04.842Z,8.11
2018-04-12T03:44:04.800Z,8.13
2018-04-12T03:45:04.831Z,8.05
2018-04-12T03:46:04.823Z,8.09
2018-04-12T03:47:04.798Z,8.04
2018-04-12T03:48:04.797Z,8.1
2018-04-12T03:49:05.233Z,8.12
2018-04-12T03:50:05.315Z,8.14
2018-04-12T03:51:04.825Z,8.13
2018-04-12T03:52:04.789Z,8.1
2018-04-12T03:53:04.789Z,8.1
2018-04-12T03:54:04.793Z,8.1
2018-04-12T03:55:04.784Z,8.12
2018-04-12T03:56:04.799Z,8.14
2018-04-12T03:57:05.050Z,8.12
2018-04-12T03:58:04.790Z,8.19
2018-04-12T03:59:04.797Z,8.09
2018-04-12T04:00:04.785Z,8.13
2018-04-12T04:01:04.826Z,8.08
2018-04-12T04:02:04.822Z,8.08
2018-04-12T04:03:04.799Z,8.07
2018-04-12T04:04:04.753Z,8.1
2018-04-12T04:05:04.764Z,8.26
2018-04-12T04:06:04.794Z,8.14
2018-04-12T04:07:04.782Z,8.13
2018-04-12T04:08:04.779Z,8.22
2018-04-12T04:09:04.761Z,8.05
2018-04-12T04:10:04.774Z,8.24
2018-04-12T04:11:04.941Z,8.19
2018-04-12T04:12:04.803Z,8.24
2018-04-12T04:13:04.769Z,8.21
2018-04-12T04:14:04.762Z,8.16
2018-04-12T04:15:04.762Z,8.23
2018-04-12T04:16:04.747Z,8.23
2018-04-12T04:17:04.776Z,8.22
2018-04-12T04:18:04.746Z,8.2
2018-04-12T04:19:04.750Z,8.18
2018-04-12T04:20:04.741Z,8.05
2018-04-12T04:21:04.749Z,8.08
2018-04-12T04:22:04.759Z,8.2
2018-04-12T04:23:04.741Z,8.2
2018-04-12T04:24:04.762Z,8.12
2018-04-12T04:25:04.739Z,8.15
2018-04-12T04:26:04.743Z,8.16
2018-04-12T04:27:04.796Z,8.19
2018-04-12T04:28:04.736Z,8.16
2018-04-12T04:29:04.774Z,8.14
2018-04-12T04:30:04.744Z,8.13
2018-04-12T04:31:04.739Z,8.18
2018-04-12T04:32:04.757Z,8.19
2018-04-12T04:33:04.865Z,8.16
2018-04-12T04:34:04.761Z,8.18
2018-04-12T04:35:04.784Z,8.17
2018-04-12T04:36:04.858Z,8.16
2018-04-12T04:37:04.732Z,8.19
2018-04-12T04:38:04.784Z,8.12
2018-04-12T04:39:04.756Z,8.18
2018-04-12T04:40:04.708Z,8.22
2018-04-12T04:41:04.763Z,8.27
2018-04-12T04:42:04.708Z,8.14
2018-04-12T04:43:04.729Z,8.09
2018-04-12T04:44:04.718Z,8.18
2018-04-12T04:45:04.787Z,8.18
2018-04-12T04:46:04.734Z,8.22
2018-04-12T04:47:04.721Z,8.23
2018-04-12T04:48:04.730Z,8.18
2018-04-12T04:49:04.698Z,8.22
2018-04-12T04:50:04.844Z,8.28
2018-04-12T04:51:04.749Z,8.26
2018-04-12T04:52:04.780Z,8.25
2018-04-12T04:53:04.694Z,8.25
2018-04-12T04:54:04.742Z,8.28
2018-04-12T04:55:04.699Z,8.25
2018-04-12T04:56:04.733Z,8.26
2018-04-12T04:57:04.709Z,8.16
2018-04-12T04:58:04.720Z,8.24
2018-04-12T04:59:04.734Z,8.29
2018-04-12T05:00:04.730Z,8.2
2018-04-12T05:01:04.719Z,8.08
2018-04-12T05:02:04.710Z,8.1
2018-04-12T05:03:04.671Z,8.11
2018-04-12T05:04:04.695Z,8.1
2018-04-12T05:05:04.693Z,8.24
2018-04-12T05:06:04.744Z,8.3
2018-04-12T05:07:04.690Z,8.33
2018-04-12T05:08:04.674Z,8.36
2018-04-12T05:09:04.702Z,8.35
2018-04-12T05:10:04.683Z,8.28
2018-04-12T05:11:04.725Z,8.32
2018-04-12T05:12:04.735Z,8.31
2018-04-12T05:13:04.715Z,8.27
2018-04-12T05:14:04.688Z,8.26
2018-04-12T05:15:04.702Z,8.24
2018-04-12T05:16:04.984Z,8.28
2018-04-12T05:17:04.731Z,8.27
2018-04-12T05:18:04.694Z,8.22
2018-04-12T05:19:04.697Z,8.18
2018-04-12T05:20:04.681Z,8.29
2018-04-12T05:21:04.959Z,8.24
2018-04-12T05:22:04.684Z,8.24
2018-04-12T05:23:04.748Z,8.28
2018-04-12T05:24:04.844Z,8.34
2018-04-12T05:25:04.690Z,8.33
2018-04-12T05:26:04.848Z,8.3
2018-04-12T05:27:04.663Z,8.32
2018-04-12T05:28:04.698Z,8.26
2018-04-12T05:29:04.664Z,8.24
2018-04-12T05:30:04.700Z,8.24
2018-04-12T05:31:04.677Z,8.2
2018-04-12T05:32:04.684Z,8.33
2018-04-12T05:33:04.836Z,8.38
2018-04-12T05:34:04.781Z,8.26
2018-04-12T05:35:04.682Z,8.25
2018-04-12T05:36:04.795Z,8.18
2018-04-12T05:37:04.779Z,8.18
2018-04-12T05:38:04.642Z,8.39
2018-04-12T05:39:04.661Z,8.38
2018-04-12T05:40:04.694Z,8.4
2018-04-12T05:41:04.643Z,8.36
2018-04-12T05:42:04.677Z,8.33
2018-04-12T05:43:04.668Z,8.28
2018-04-12T05:44:04.648Z,8.32
2018-04-12T05:45:04.647Z,8.38
2018-04-12T05:46:04.664Z,8.37
2018-04-12T05:47:04.654Z,8.31
2018-04-12T05:48:04.652Z,8.39
2018-04-12T05:49:04.683Z,8.31
2018-04-12T05:50:04.648Z,8.33
2018-04-12T05:51:04.628Z,8.43
2018-04-12T05:52:04.625Z,8.42
2018-04-12T05:53:04.627Z,8.47
2018-04-12T05:54:04.616Z,8.42
2018-04-12T05:55:04.633Z,8.5
2018-04-12T05:56:04.632Z,8.44
2018-04-12T05:57:04.944Z,8.49
2018-04-12T05:58:04.655Z,8.52
2018-04-12T05:59:04.631Z,8.45
2018-04-12T06:00:04.649Z,8.58
2018-04-12T06:01:04.635Z,8.59
2018-04-12T06:02:04.650Z,8.58
2018-04-12T06:03:04.618Z,8.57
2018-04-12T06:04:04.613Z,8.57
2018-04-12T06:05:04.593Z,8.59
2018-04-12T06:06:04.601Z,8.52
2018-04-12T06:07:04.647Z,8.61
2018-04-12T06:08:04.618Z,8.63
2018-04-12T06:09:04.645Z,8.53
2018-04-12T06:10:04.603Z,8.64
2018-04-12T06:11:04.600Z,8.53
2018-04-12T06:12:04.629Z,8.67
2018-04-12T06:13:04.594Z,8.63
2018-04-12T06:14:04.601Z,8.64
2018-04-12T06:15:04.638Z,8.65
2018-04-12T06:16:04.612Z,8.63
2018-04-12T06:17:04.649Z,8.7
2018-04-12T06:18:04.579Z,8.71
2018-04-12T06:19:04.592Z,8.66
2018-04-12T06:20:04.581Z,8.73
2018-04-12T06:21:04.568Z,8.81
2018-04-12T06:22:04.659Z,8.72
2018-04-12T06:23:04.599Z,8.69
2018-04-12T06:24:04.579Z,8.67
2018-04-12T06:25:04.671Z,8.79
2018-04-12T06:26:04.593Z,8.82
2018-04-12T06:27:04.618Z,8.79
2018-04-12T06:28:04.716Z,8.74
2018-04-12T06:29:04.555Z,8.71
2018-04-12T06:30:04.569Z,8.81
2018-04-12T06:31:04.578Z,8.63
2018-04-12T06:32:04.893Z,8.66
2018-04-12T06:33:04.605Z,8.6
2018-04-12T06:34:04.589Z,8.57
2018-04-12T06:35:04.600Z,8.58
2018-04-12T06:36:04.585Z,8.59
2018-04-12T06:37:04.655Z,8.57
2018-04-12T06:38:04.562Z,8.55
2018-04-12T06:39:04.552Z,8.49
2018-04-12T06:40:04.561Z,8.52
2018-04-12T06:41:04.557Z,8.5
2018-04-12T06:42:04.572Z,8.55
2018-04-12T06:43:04.571Z,8.52
2018-04-12T06:44:04.577Z,8.51
2018-04-12T06:45:04.659Z,8.47
2018-04-12T06:46:04.551Z,8.5
2018-04-12T06:47:04.603Z,8.51
2018-04-12T06:48:04.552Z,8.48
2018-04-12T06:49:04.548Z,8.51
2018-04-12T06:50:04.617Z,8.53
2018-04-12T06:51:04.545Z,8.52
2018-04-12T06:52:04.560Z,8.53
2018-04-12T06:53:04.561Z,8.49
2018-04-12T06:54:04.878Z,8.51
2018-04-12T06:55:04.538Z,8.49
2018-04-12T06:56:04.559Z,8.5
2018-04-12T06:57:04.595Z,8.46
2018-04-12T06:58:04.558Z,8.45
2018-04-12T06:59:04.518Z,8.45
2018-04-12T07:00:04.611Z,8.46
2018-04-12T07:01:04.572Z,8.5
2018-04-12T07:02:04.587Z,8.49
2018-04-12T07:03:04.525Z,8.46
2018-04-12T07:04:04.561Z,8.51
2018-04-12T07:05:04.531Z,8.46
2018-04-12T07:06:04.536Z,8.53
2018-04-12T07:07:04.517Z,8.53
2018-04-12T07:08:04.520Z,8.48
2018-04-12T07:09:04.533Z,8.46
2018-04-12T07:10:04.541Z,8.4
2018-04-12T07:11:04.514Z,8.39
2018-04-12T07:12:04.509Z,8.41
2018-04-12T07:13:04.515Z,8.37
2018-04-12T07:14:04.496Z,8.37
2018-04-12T07:15:04.517Z,8.4
2018-04-12T07:16:04.556Z,8.41
2018-04-12T07:17:04.533Z,8.39
2018-04-12T07:18:04.558Z,8.42
2018-04-12T07:19:04.529Z,8.48
2018-04-12T07:20:04.503Z,8.48
2018-04-12T07:21:04.491Z,8.48
2018-04-12T07:22:04.541Z,8.55
2018-04-12T07:23:04.490Z,8.51
2018-04-12T07:24:04.497Z,8.47
2018-04-12T07:25:04.505Z,8.43
2018-04-12T07:26:04.730Z,8.48
2018-04-12T07:27:04.511Z,8.5
2018-04-12T07:28:04.491Z,8.5
2018-04-12T07:29:04.539Z,8.44
2018-04-12T07:30:04.532Z,8.46
2018-04-12T07:31:04.502Z,8.44
2018-04-12T07:32:04.511Z,8.42
2018-04-12T07:33:04.464Z,8.37
2018-04-12T07:34:04.497Z,8.4
2018-04-12T07:35:04.729Z,8.4
2018-04-12T07:36:04.529Z,8.43
2018-04-12T07:37:04.509Z,8.42
2018-04-12T07:38:04.481Z,8.39
2018-04-12T07:39:04.488Z,8.42
2018-04-12T07:40:04.495Z,8.44
2018-04-12T07:41:04.519Z,8.42
2018-04-12T07:42:04.525Z,8.38
2018-04-12T07:43:04.501Z,8.39
2018-04-12T07:44:04.472Z,8.4
2018-04-12T07:45:04.499Z,8.48
2018-04-12T07:46:04.483Z,8.45
2018-04-12T07:47:04.623Z,8.33
2018-04-12T07:48:04.522Z,8.33
2018-04-12T07:49:04.455Z,8.38
2018-04-12T07:50:04.460Z,8.37
2018-04-12T07:51:04.451Z,8.41
2018-04-12T07:52:04.661Z,8.38
2018-04-12T07:53:04.492Z,8.36
2018-04-12T07:54:04.474Z,8.31
2018-04-12T07:55:04.534Z,8.36
2018-04-12T07:56:04.453Z,8.31
2018-04-12T07:57:04.480Z,8.39
2018-04-12T07:58:04.444Z,8.4
2018-04-12T07:59:04.423Z,8.33
2018-04-12T08:00:04.437Z,8.36
2018-04-12T08:01:04.406Z,8.41
2018-04-12T08:02:04.764Z,8.42
2018-04-12T08:03:04.618Z,8.44
2018-04-12T08:04:04.554Z,8.38
2018-04-12T08:05:04.437Z,8.39
2018-04-12T08:06:04.435Z,8.38
2018-04-12T08:07:04.593Z,8.45
2018-04-12T08:08:04.815Z,8.4
2018-04-12T08:09:04.566Z,8.41
2018-04-12T08:10:04.435Z,8.43
2018-04-12T08:11:04.411Z,8.33
2018-04-12T08:12:04.466Z,8.36
2018-04-12T08:13:04.414Z,8.4
2018-04-12T08:14:04.431Z,8.38
2018-04-12T08:15:04.404Z,8.36
2018-04-12T08:16:04.441Z,8.42
2018-04-12T08:17:04.458Z,8.47
2018-04-12T08:18:04.421Z,8.44
2018-04-12T08:19:04.384Z,8.51
2018-04-12T08:20:04.438Z,8.45
2018-04-12T08:21:04.417Z,8.42
2018-04-12T08:22:04.465Z,8.44
2018-04-12T08:23:04.421Z,8.34
2018-04-12T08:24:04.394Z,8.38
2018-04-12T08:25:04.403Z,8.46
2018-04-12T08:26:04.387Z,8.49
2018-04-12T08:27:04.396Z,8.5
2018-04-12T08:28:04.426Z,8.5
2018-04-12T08:29:04.411Z,8.56
2018-04-12T08:30:04.415Z,8.57
2018-04-12T08:31:04.394Z,8.57
2018-04-12T08:32:04.391Z,8.55
2018-04-12T08:33:04.407Z,8.45
2018-04-12T08:34:04.381Z,8.47
2018-04-12T08:35:04.387Z,8.56
2018-04-12T08:36:04.405Z,8.52
2018-04-12T08:37:04.402Z,8.43
2018-04-12T08:38:04.449Z,8.43
2018-04-12T08:39:04.395Z,8.42
2018-04-12T08:40:04.427Z,8.26
2018-04-12T08:41:04.371Z,8.29
2018-04-12T08:42:04.396Z,8.29
2018-04-12T08:43:04.387Z,8.44
2018-04-12T08:44:04.381Z,8.36
2018-04-12T08:45:04.372Z,8.4
2018-04-12T08:46:04.375Z,8.35
2018-04-12T08:47:04.413Z,8.43
2018-04-12T08:48:04.632Z,8.45
2018-04-12T08:49:04.378Z,8.36
2018-04-12T08:50:04.409Z,8.45
2018-04-12T08:51:04.357Z,8.41
2018-04-12T08:52:04.609Z,8.46
2018-04-12T08:53:04.398Z,8.44
2018-04-12T08:54:04.424Z,8.38
2018-04-12T08:55:04.387Z,8.42
2018-04-12T08:56:04.393Z,8.44
2018-04-12T08:57:04.374Z,8.46
2018-04-12T08:58:04.372Z,8.62
2018-04-12T08:59:04.360Z,8.44
2018-04-12T09:00:04.405Z,8.46
2018-04-12T09:01:04.371Z,8.03
2018-04-12T09:02:04.401Z,8.19
2018-04-12T09:03:04.717Z,8.15
2018-04-12T09:04:04.336Z,8.21
2018-04-12T09:05:04.354Z,8.27
2018-04-12T09:06:04.361Z,8.26
2018-04-12T09:07:04.355Z,8.11
2018-04-12T09:08:04.409Z,8.24
2018-04-12T09:09:04.342Z,8.32
2018-04-12T09:10:04.396Z,8.27
2018-04-12T09:11:04.350Z,8.2
2018-04-12T09:12:04.417Z,8.17
2018-04-12T09:13:04.383Z,8.14
2018-04-12T09:14:04.328Z,8.15
2018-04-12T09:15:04.369Z,8.15
2018-04-12T09:16:04.370Z,8.31
2018-04-12T09:17:04.353Z,8.35
2018-04-12T09:18:04.464Z,8.34
2018-04-12T09:19:04.373Z,8.33
2018-04-12T09:20:04.359Z,8.37
2018-04-12T09:21:04.325Z,8.34
2018-04-12T09:22:04.337Z,8.36
2018-04-12T09:23:04.378Z,8.28
2018-04-12T09:24:04.338Z,8.24
2018-04-12T09:25:04.552Z,8.23
2018-04-12T09:26:04.331Z,8.25
2018-04-12T09:27:04.313Z,8.33
2018-04-12T09:28:04.333Z,8.33
2018-04-12T09:29:04.320Z,8.34
2018-04-12T09:30:04.359Z,8.42
2018-04-12T09:31:04.332Z,8.31
2018-04-12T09:32:04.312Z,8.28
2018-04-12T09:33:04.329Z,8.32
2018-04-12T09:34:04.391Z,8.21
2018-04-12T09:35:04.302Z,8.39
2018-04-12T09:36:04.348Z,8.43
2018-04-12T09:37:04.319Z,8.49
2018-04-12T09:38:04.328Z,8.41
2018-04-12T09:39:04.532Z,8.46
2018-04-12T09:40:04.335Z,8.45
2018-04-12T09:41:04.392Z,8.33
2018-04-12T09:42:04.320Z,8.33
2018-04-12T09:43:04.369Z,8.29
2018-04-12T09:44:04.289Z,8.23
2018-04-12T09:45:04.295Z,8.23
2018-04-12T09:46:04.307Z,8.27
2018-04-12T09:47:04.364Z,8.32
2018-04-12T09:48:04.373Z,8.37
2018-04-12T09:49:04.544Z,8.44
2018-04-12T09:50:04.350Z,8.4
2018-04-12T09:51:04.283Z,8.38
2018-04-12T09:52:04.286Z,8.28
2018-04-12T09:53:04.349Z,8.3
2018-04-12T09:54:04.279Z,8.29
2018-04-12T09:55:04.297Z,8.32
2018-04-12T09:56:04.285Z,8.3
2018-04-12T09:57:04.274Z,8.3
2018-04-12T09:58:04.303Z,8.11
2018-04-12T09:59:04.288Z,8
2018-04-12T10:00:05.099Z,8.2
2018-04-12T10:01:04.272Z,8.27
2018-04-12T10:02:04.254Z,8.19
2018-04-12T10:03:04.385Z,8.18
2018-04-12T10:04:04.277Z,8.21
2018-04-12T10:05:04.301Z,8.24
2018-04-12T10:06:04.291Z,8.25
2018-04-12T10:07:04.323Z,8.27
2018-04-12T10:08:04.408Z,8.12
2018-04-12T10:09:04.585Z,8.22
2018-04-12T10:10:04.256Z,8.3
2018-04-12T10:11:04.296Z,8.31
2018-04-12T10:12:04.426Z,8.41
2018-04-12T10:13:04.295Z,8.47
2018-04-12T10:14:04.281Z,8.35
2018-04-12T10:15:04.239Z,8.28
2018-04-12T10:16:04.310Z,8.34
2018-04-12T10:17:04.274Z,8.32
2018-04-12T10:18:04.283Z,8.38
2018-04-12T10:19:04.266Z,8.41
2018-04-12T10:20:04.298Z,8.46
2018-04-12T10:21:04.239Z,8.44
2018-04-12T10:22:04.230Z,8.32
2018-04-12T10:23:04.217Z,8.41
2018-04-12T10:24:04.243Z,8.36
2018-04-12T10:25:04.236Z,8.47
2018-04-12T10:26:04.219Z,8.59
2018-04-12T10:27:04.227Z,8.69
2018-04-12T10:28:04.268Z,8.74
2018-04-12T10:29:04.362Z,8.45
2018-04-12T10:30:04.230Z,8.13
2018-04-12T10:31:04.264Z,8.18
2018-04-12T10:32:04.236Z,8.12
2018-04-12T10:33:04.520Z,7.94
2018-04-12T10:34:04.293Z,8.07
2018-04-12T10:35:04.268Z,7.96
2018-04-12T10:36:04.233Z,7.93
2018-04-12T10:37:04.242Z,8
2018-04-12T10:38:04.208Z,8.03
2018-04-12T10:39:04.223Z,8.11
2018-04-12T10:40:04.228Z,8.23
2018-04-12T10:41:04.250Z,8.24
2018-04-12T10:42:04.214Z,8.26
2018-04-12T10:43:04.220Z,8.5
2018-04-12T10:44:04.345Z,8.62
2018-04-12T10:45:04.192Z,8.55
2018-04-12T10:46:04.274Z,8.41
2018-04-12T10:47:04.208Z,8.22
2018-04-12T10:48:04.188Z,8.2
2018-04-12T10:49:04.293Z,7.98
2018-04-12T10:50:04.229Z,7.8
2018-04-12T10:51:04.241Z,7.77
2018-04-12T10:52:04.196Z,7.95
2018-04-12T10:53:04.202Z,7.81
2018-04-12T10:54:04.282Z,7.99
2018-04-12T10:55:04.229Z,7.86
2018-04-12T10:56:04.202Z,7.96
2018-04-12T10:57:04.201Z,8.02
2018-04-12T10:58:04.204Z,8.03
2018-04-12T10:59:04.263Z,7.96
2018-04-12T11:00:04.175Z,7.9
2018-04-12T11:01:04.241Z,7.93
2018-04-12T11:02:04.215Z,7.89
2018-04-12T11:03:04.187Z,8
2018-04-12T11:04:04.412Z,7.91
2018-04-12T11:05:04.184Z,7.84
2018-04-12T11:06:04.186Z,7.9
2018-04-12T11:07:04.195Z,7.85
2018-04-12T11:08:04.233Z,7.9
2018-04-12T11:09:04.330Z,7.84
2018-04-12T11:10:04.353Z,7.84
2018-04-12T11:11:04.227Z,7.92
2018-04-12T11:12:04.173Z,7.96
2018-04-12T11:13:04.182Z,7.91
2018-04-12T11:14:04.306Z,8.07
2018-04-12T11:15:04.199Z,8.13
2018-04-12T11:16:04.163Z,8.09
2018-04-12T11:17:04.207Z,8.21
2018-04-12T11:18:04.345Z,8.24
2018-04-12T11:19:04.336Z,8.29
2018-04-12T11:20:04.185Z,8.34
2018-04-12T11:21:04.480Z,8.36
2018-04-12T11:22:04.174Z,8.27
2018-04-12T11:23:04.136Z,8.17
2018-04-12T11:24:04.133Z,8.14
2018-04-12T11:25:04.323Z,8.24
2018-04-12T11:26:04.147Z,8.21
2018-04-12T11:27:04.232Z,8.11
2018-04-12T11:28:04.143Z,8.16
2018-04-12T11:29:04.235Z,8.14
2018-04-12T11:30:04.340Z,8.27
2018-04-12T11:31:04.152Z,8.26
2018-04-12T11:32:04.149Z,8.37
2018-04-12T11:33:04.389Z,8.39
2018-04-12T11:34:04.133Z,8.34
2018-04-12T11:35:04.448Z,8.35
2018-04-12T11:36:04.159Z,8.27
2018-04-12T11:37:04.128Z,8.24
2018-04-12T11:38:04.114Z,8.24
2018-04-12T11:39:04.097Z,8.25
2018-04-12T11:40:04.142Z,8.16
2018-04-12T11:41:04.137Z,8.33
2018-04-12T11:42:04.108Z,8.19
2018-04-12T11:43:04.132Z,8.1
2018-04-12T11:44:04.105Z,8.02
2018-04-12T11:45:04.106Z,8.12
2018-04-12T11:46:04.142Z,8.15
2018-04-12T11:47:04.333Z,8.04
2018-04-12T11:48:04.128Z,8.28
2018-04-12T11:49:04.371Z,8.27
2018-04-12T11:50:04.209Z,8.07
2018-04-12T11:51:04.508Z,7.81
2018-04-12T11:52:04.141Z,8.05
2018-04-12T11:53:04.310Z,8.11
2018-04-12T11:54:04.100Z,8.12
2018-04-12T11:55:04.577Z,8.16
2018-04-12T11:56:04.397Z,8.07
2018-04-12T11:57:04.074Z,8.06
2018-04-12T11:58:04.124Z,8.06
2018-04-12T11:59:04.120Z,7.99
2018-04-12T12:00:04.113Z,8.04
2018-04-12T12:01:04.372Z,8.16
2018-04-12T12:02:04.082Z,8.05
2018-04-12T12:03:04.084Z,7.99
2018-04-12T12:04:04.114Z,8.2
2018-04-12T12:05:04.101Z,8.07
2018-04-12T12:06:04.129Z,8.15
2018-04-12T12:07:04.135Z,7.93
2018-04-12T12:08:04.175Z,7.96
2018-04-12T12:09:04.113Z,8.1
2018-04-12T12:10:04.101Z,8.05
2018-04-12T12:11:04.151Z,8.14
2018-04-12T12:12:04.230Z,8.12
2018-04-12T12:13:04.053Z,8.21
2018-04-12T12:14:04.116Z,8.08
2018-04-12T12:15:04.079Z,7.91
2018-04-12T12:16:04.110Z,7.93
2018-04-12T12:17:04.047Z,7.71
2018-04-12T12:18:04.051Z,7.94
2018-04-12T12:19:04.042Z,7.85
2018-04-12T12:20:04.077Z,7.9
2018-04-12T12:21:04.127Z,7.84
2018-04-12T12:22:04.058Z,7.82
2018-04-12T12:23:04.057Z,7.83
2018-04-12T12:24:04.066Z,7.88
2018-04-12T12:25:04.065Z,7.81
2018-04-12T12:26:04.125Z,7.61
2018-04-12T12:27:04.207Z,7.92
2018-04-12T12:28:04.070Z,7.91
2018-04-12T12:29:05.687Z,7.83
2018-04-12T12:30:04.044Z,7.91
2018-04-12T12:31:04.135Z,8.01
2018-04-12T12:32:04.043Z,7.92
2018-04-12T12:33:04.047Z,7.96
2018-04-12T12:34:04.085Z,7.95
2018-04-12T12:35:04.056Z,7.96
2018-04-12T12:36:04.099Z,8.16
2018-04-12T12:37:04.058Z,7.96
2018-04-12T12:38:04.049Z,7.7
2018-04-12T12:39:04.045Z,7.9
2018-04-12T12:40:04.046Z,7.89
2018-04-12T12:41:04.145Z,7.8
2018-04-12T12:42:04.041Z,7.89
2018-04-12T12:43:04.016Z,7.81
2018-04-12T12:44:04.034Z,7.85
2018-04-12T12:45:04.030Z,7.82
2018-04-12T12:46:04.018Z,7.89
2018-04-12T12:47:04.131Z,7.83
2018-04-12T12:48:04.062Z,7.81
2018-04-12T12:49:04.055Z,7.95
2018-04-12T12:50:04.064Z,8
2018-04-12T12:51:04.074Z,7.95
2018-04-12T12:52:04.101Z,7.9
2018-04-12T12:53:04.125Z,8.04
2018-04-12T12:54:04.096Z,7.78
2018-04-12T12:55:04.019Z,7.85
2018-04-12T12:56:04.277Z,7.99
2018-04-12T12:57:04.044Z,8.02
2018-04-12T12:58:04.043Z,7.95
2018-04-12T12:59:04.036Z,8.03
2018-04-12T13:00:04.068Z,7.94
2018-04-12T13:01:04.033Z,7.98
2018-04-12T13:02:04.052Z,7.99
2018-04-12T13:03:04.086Z,7.86
2018-04-12T13:04:04.708Z,7.97
2018-04-12T13:05:04.989Z,7.98
2018-04-12T13:06:03.981Z,8.04
2018-04-12T13:07:04.226Z,7.91
2018-04-12T13:08:04.039Z,7.87
2018-04-12T13:09:04.007Z,7.96
2018-04-12T13:10:04.288Z,8.07
2018-04-12T13:11:04.007Z,8.19
2018-04-12T13:12:04.029Z,7.89
2018-04-12T13:13:04.021Z,8.1
2018-04-12T13:14:03.989Z,7.95
2018-04-12T13:15:04.023Z,7.91
2018-04-12T13:16:04.010Z,8.16
2018-04-12T13:17:04.009Z,8.16
2018-04-12T13:18:03.999Z,8.1
2018-04-12T13:19:03.976Z,7.99
2018-04-12T13:20:03.984Z,8.08
2018-04-12T13:21:03.978Z,7.98
2018-04-12T13:22:04.307Z,7.96